createdAt,value
2023-03-15T00:00:06.912Z,5.43
2023-03-15T00:01:06.890Z,5.43
2023-03-15T00:02:06.919Z,5.35
2023-03-15T00:03:06.872Z,5.38
2023-03-15T00:04:06.878Z,5.36
2023-03-15T00:05:06.868Z,5.32
2023-03-15T00:06:06.862Z,5.38
2023-03-15T00:07:06.852Z,5.32
2023-03-15T00:08:06.845Z,5.35
2023-03-15T00:09:06.842Z,5.30
2023-03-15T00:10:06.824Z,5.28
2023-03-15T00:11:06.822Z,5.28
2023-03-15T00:12:06.825Z,5.21
2023-03-15T00:13:06.790Z,5.23
2023-03-15T00:14:06.796Z,5.28
2023-03-15T00:15:06.817Z,5.20
2023-03-15T00:16:06.848Z,5.25
2023-03-15T00:17:06.778Z,5.26
2023-03-15T00:18:06.771Z,5.17
2023-03-15T00:19:06.776Z,5.12
2023-03-15T00:20:06.758Z,5.18
2023-03-15T00:21:06.754Z,5.14
2023-03-15T00:22:06.787Z,5.20
2023-03-15T00:23:06.740Z,5.10
2023-03-15T00:24:06.705Z,5.08
2023-03-15T00:25:06.715Z,5.08
2023-03-15T00:26:06.689Z,5.07
2023-03-15T00:27:06.686Z,5.08
2023-03-15T00:28:06.673Z,5.07
2023-03-15T00:29:06.669Z,5.04
2023-03-15T00:30:06.676Z,4.97
2023-03-15T00:31:06.657Z,5.04
2023-03-15T00:32:06.663Z,5.00
2023-03-15T00:33:06.659Z,5.07
2023-03-15T00:34:06.644Z,5.08
2023-03-15T00:35:06.640Z,5.00
2023-03-15T00:36:06.686Z,5.04
2023-03-15T00:37:06.598Z,4.99
2023-03-15T00:38:06.598Z,5.00
2023-03-15T00:39:06.573Z,5.02
2023-03-15T00:40:06.565Z,5.12
2023-03-15T00:41:06.594Z,5.02
2023-03-15T00:42:06.556Z,4.99
2023-03-15T00:43:06.570Z,4.99
2023-03-15T00:44:13.769Z,5.02
2023-03-15T00:46:10.551Z,4.99
2023-03-15T00:47:10.499Z,4.92
2023-03-15T00:49:14.480Z,5.02
2023-03-15T00:50:14.470Z,4.90
2023-03-15T00:52:18.556Z,4.87
2023-03-15T00:53:18.423Z,4.96
2023-03-15T00:55:11.315Z,4.92
2023-03-15T00:56:11.309Z,4.80
2023-03-15T00:58:15.957Z,4.75
2023-03-15T00:59:15.262Z,4.73
2023-03-15T01:01:19.322Z,4.62
2023-03-15T01:02:19.234Z,4.60
2023-03-15T01:04:23.405Z,4.62
2023-03-15T01:05:23.222Z,4.71
2023-03-15T01:07:16.325Z,4.53
2023-03-15T01:08:16.289Z,4.50
2023-03-15T01:10:21.172Z,4.56
2023-03-15T01:11:20.665Z,4.50
2023-03-15T01:13:24.439Z,4.42
2023-03-15T01:14:24.421Z,4.38
2023-03-15T01:16:28.723Z,4.23
2023-03-15T01:17:28.383Z,4.26
2023-03-15T01:19:32.359Z,4.22
2023-03-15T01:20:32.370Z,4.22
2023-03-15T01:22:36.337Z,4.19
2023-03-15T01:23:36.310Z,4.24
2023-03-15T01:25:29.222Z,4.30
2023-03-15T01:26:29.203Z,4.31
2023-03-15T01:28:33.220Z,4.35
2023-03-15T01:29:33.176Z,4.32
2023-03-15T01:31:37.209Z,4.35
2023-03-15T01:32:37.155Z,4.35
2023-03-15T01:34:41.120Z,4.35
2023-03-15T01:35:41.132Z,4.32
2023-03-15T01:37:45.058Z,4.40
2023-03-15T01:38:45.038Z,4.40
2023-03-15T01:40:49.068Z,4.49
2023-03-15T01:41:48.995Z,4.48
2023-03-15T01:43:53.560Z,4.45
2023-03-15T01:44:53.158Z,4.40
2023-03-15T01:46:57.213Z,4.44
2023-03-15T01:47:57.123Z,4.28
2023-03-15T01:50:01.107Z,4.38
2023-03-15T01:51:01.093Z,4.30
2023-03-15T01:53:05.111Z,4.38
2023-03-15T01:54:05.124Z,4.48
2023-03-15T01:56:09.034Z,4.35
2023-03-15T01:57:09.040Z,4.45
2023-03-15T01:59:13.037Z,4.31
2023-03-15T02:00:12.994Z,4.45
2023-03-15T02:02:16.986Z,4.41
2023-03-15T02:03:16.951Z,4.42
2023-03-15T02:05:09.891Z,4.28
2023-03-15T02:06:09.847Z,4.35
2023-03-15T02:08:13.816Z,4.26
2023-03-15T02:09:13.799Z,4.32
2023-03-15T02:11:17.810Z,4.37
2023-03-15T02:12:17.793Z,4.26
2023-03-15T02:14:21.782Z,4.44
2023-03-15T02:15:21.824Z,4.45
2023-03-15T02:17:25.764Z,4.42
2023-03-15T02:18:25.751Z,4.42
2023-03-15T02:20:29.749Z,4.41
2023-03-15T02:21:29.732Z,4.38
2023-03-15T02:23:33.717Z,4.31
2023-03-15T02:24:33.689Z,4.24
2023-03-15T02:26:37.687Z,4.22
2023-03-15T02:27:37.716Z,4.04
2023-03-15T02:29:41.654Z,4.08
2023-03-15T02:30:41.610Z,4.01
2023-03-15T02:32:45.641Z,4.01
2023-03-15T02:33:45.575Z,4.01
2023-03-15T02:35:38.518Z,4.06
2023-03-15T02:36:38.463Z,3.99
2023-03-15T02:38:42.431Z,3.98
2023-03-15T02:39:42.423Z,4.10
2023-03-15T02:41:46.483Z,3.95
2023-03-15T02:42:46.392Z,3.92
2023-03-15T02:44:50.392Z,3.86
2023-03-15T02:45:50.454Z,3.84
2023-03-15T02:47:43.501Z,3.95
2023-03-15T02:48:43.467Z,3.98
2023-03-15T02:50:47.445Z,4.01
2023-03-15T02:51:47.410Z,4.06
2023-03-15T02:53:51.447Z,4.10
2023-03-15T02:54:51.470Z,4.12
2023-03-15T02:56:55.392Z,4.13
2023-03-15T02:57:55.401Z,4.05
2023-03-15T02:59:59.370Z,4.16
2023-03-15T03:00:59.342Z,4.22
2023-03-15T03:03:03.304Z,4.19
2023-03-15T03:04:03.314Z,4.22
2023-03-15T03:06:07.762Z,4.26
2023-03-15T03:07:07.247Z,4.19
2023-03-15T03:09:11.230Z,4.23
2023-03-15T03:10:11.219Z,4.23
2023-03-15T03:12:15.224Z,4.19
2023-03-15T03:13:15.175Z,4.26
2023-03-15T03:15:08.084Z,4.30
2023-03-15T03:16:08.054Z,4.24
2023-03-15T03:18:12.067Z,4.28
2023-03-15T03:19:12.014Z,4.17
2023-03-15T03:21:15.993Z,4.35
2023-03-15T03:22:15.968Z,4.31
2023-03-15T03:24:19.973Z,4.22
2023-03-15T03:25:19.951Z,4.34
2023-03-15T03:27:23.939Z,4.30
2023-03-15T03:28:23.929Z,4.23
2023-03-15T03:30:27.885Z,4.28
2023-03-15T03:31:27.866Z,4.19
2023-03-15T03:33:31.872Z,4.05
2023-03-15T03:34:31.819Z,4.12
2023-03-15T03:36:35.813Z,4.01
2023-03-15T03:37:35.791Z,4.05
2023-03-15T03:39:39.783Z,4.01
2023-03-15T03:40:39.748Z,4.05
2023-03-15T03:42:43.738Z,4.08
2023-03-15T03:43:43.716Z,4.06
2023-03-15T03:45:37.239Z,4.08
2023-03-15T03:46:36.820Z,4.05
2023-03-15T03:48:40.774Z,4.06
2023-03-15T03:49:40.747Z,4.20
2023-03-15T03:51:44.753Z,4.17
2023-03-15T03:52:44.696Z,4.20
2023-03-15T03:54:48.698Z,4.23
2023-03-15T03:55:48.671Z,4.17
2023-03-15T03:57:52.677Z,4.16
2023-03-15T03:58:52.638Z,4.23
2023-03-15T04:00:56.620Z,4.26
2023-03-15T04:01:56.594Z,4.26
2023-03-15T04:04:00.595Z,4.24
2023-03-15T04:05:00.733Z,4.23
2023-03-15T04:07:04.543Z,4.28
2023-03-15T04:08:04.515Z,4.23
2023-03-15T04:10:08.529Z,4.19
2023-03-15T04:11:08.498Z,4.28
2023-03-15T04:13:12.470Z,4.22
2023-03-15T04:14:12.454Z,4.19
2023-03-15T04:16:16.594Z,4.22
2023-03-15T04:17:16.415Z,4.14
2023-03-15T04:18:16.396Z,4.12
2023-03-15T04:19:16.424Z,4.08
2023-03-15T04:20:16.393Z,4.24
2023-03-15T04:21:16.383Z,4.20
2023-03-15T04:22:16.371Z,4.08
2023-03-15T04:23:16.363Z,4.13
2023-03-15T04:24:16.352Z,4.08
2023-03-15T04:25:16.352Z,4.05
2023-03-15T04:26:16.335Z,4.10
2023-03-15T04:27:16.332Z,4.04
2023-03-15T04:28:16.310Z,4.08
2023-03-15T04:29:16.308Z,4.02
2023-03-15T04:30:16.294Z,4.08
2023-03-15T04:31:16.316Z,4.08
2023-03-15T04:32:16.273Z,4.10
2023-03-15T04:33:16.269Z,4.08
2023-03-15T04:34:16.258Z,4.06
2023-03-15T04:35:16.252Z,4.08
2023-03-15T04:36:16.239Z,4.01
2023-03-15T04:37:16.237Z,4.04
2023-03-15T04:38:16.240Z,3.96
2023-03-15T04:39:16.221Z,4.08
2023-03-15T04:40:16.212Z,4.08
2023-03-15T04:41:16.204Z,4.10
2023-03-15T04:42:16.198Z,4.04
2023-03-15T04:43:16.185Z,4.01
2023-03-15T04:44:16.186Z,3.99
2023-03-15T04:45:16.190Z,4.01
2023-03-15T04:46:16.214Z,3.98
2023-03-15T04:47:16.168Z,4.05
2023-03-15T04:48:16.149Z,4.06
2023-03-15T04:49:16.146Z,4.02
2023-03-15T04:50:16.125Z,4.02
2023-03-15T04:51:16.118Z,4.05
2023-03-15T04:52:16.123Z,4.04
2023-03-15T04:53:16.097Z,4.02
2023-03-15T04:54:16.082Z,4.04
2023-03-15T04:55:16.079Z,3.96
2023-03-15T04:56:16.064Z,4.04
2023-03-15T04:57:16.061Z,3.98
2023-03-15T04:58:16.065Z,4.01
2023-03-15T04:59:16.052Z,3.98
2023-03-15T05:00:16.026Z,3.98
2023-03-15T05:01:16.088Z,3.92
2023-03-15T05:02:16.063Z,3.96
2023-03-15T05:03:16.022Z,3.88
2023-03-15T05:04:15.992Z,3.91
2023-03-15T05:05:16.001Z,3.86
2023-03-15T05:06:15.996Z,3.94
2023-03-15T05:07:15.969Z,3.86
2023-03-15T05:08:16.018Z,3.95
2023-03-15T05:09:15.949Z,3.83
2023-03-15T05:10:15.931Z,3.84
2023-03-15T05:11:15.938Z,3.81
2023-03-15T05:12:15.925Z,3.77
2023-03-15T05:13:15.915Z,3.78
2023-03-15T05:14:15.953Z,3.73
2023-03-15T05:15:15.915Z,3.76
2023-03-15T05:16:15.945Z,3.66
2023-03-15T05:17:15.880Z,3.69
2023-03-15T05:18:15.878Z,3.63
2023-03-15T05:19:15.852Z,3.66
2023-03-15T05:20:15.848Z,3.63
2023-03-15T05:21:15.844Z,3.51
2023-03-15T05:22:15.826Z,3.50
2023-03-15T05:23:15.829Z,3.50
2023-03-15T05:24:15.824Z,3.50
2023-03-15T05:25:15.795Z,3.51
2023-03-15T05:26:15.813Z,3.48
2023-03-15T05:27:15.805Z,3.55
2023-03-15T05:28:15.778Z,3.44
2023-03-15T05:29:15.760Z,3.42
2023-03-15T05:30:15.871Z,3.42
2023-03-15T05:31:15.816Z,3.34
2023-03-15T05:32:15.732Z,3.32
2023-03-15T05:33:15.732Z,3.31
2023-03-15T05:34:15.712Z,3.26
2023-03-15T05:35:15.705Z,3.28
2023-03-15T05:36:15.704Z,3.31
2023-03-15T05:37:15.700Z,3.29
2023-03-15T05:38:15.675Z,3.29
2023-03-15T05:39:15.662Z,3.36
2023-03-15T05:40:15.660Z,3.36
2023-03-15T05:41:15.647Z,3.37
2023-03-15T05:42:15.640Z,3.44
2023-03-15T05:43:15.625Z,3.41
2023-03-15T05:44:15.629Z,3.45
2023-03-15T05:45:15.622Z,3.58
2023-03-15T05:46:15.639Z,3.48
2023-03-15T05:47:15.599Z,3.41
2023-03-15T05:48:15.599Z,3.41
2023-03-15T05:49:15.574Z,3.31
2023-03-15T05:50:15.571Z,3.26
2023-03-15T05:51:15.556Z,3.36
2023-03-15T05:52:15.583Z,3.31
2023-03-15T05:53:15.535Z,3.26
2023-03-15T05:54:15.555Z,3.22
2023-03-15T05:55:15.526Z,3.18
2023-03-15T05:56:15.529Z,3.21
2023-03-15T05:57:15.503Z,3.29
2023-03-15T05:58:15.489Z,3.21
2023-03-15T05:59:15.493Z,3.26
2023-03-15T06:00:15.478Z,3.29
2023-03-15T06:01:15.466Z,3.21
2023-03-15T06:02:15.457Z,3.36
2023-03-15T06:03:15.466Z,3.34
2023-03-15T06:04:15.586Z,3.32
2023-03-15T06:05:15.430Z,3.41
2023-03-15T06:06:15.423Z,3.28
2023-03-15T06:07:15.400Z,3.34
2023-03-15T06:08:15.406Z,3.36
2023-03-15T06:09:15.407Z,3.26
2023-03-15T06:10:15.377Z,3.29
2023-03-15T06:11:15.379Z,3.32
2023-03-15T06:12:15.395Z,3.37
2023-03-15T06:13:17.895Z,3.32
2023-03-15T06:14:15.363Z,3.41
2023-03-15T06:15:15.330Z,3.41
2023-03-15T06:16:15.379Z,3.41
2023-03-15T06:17:15.309Z,3.34
2023-03-15T06:18:15.353Z,3.29
2023-03-15T06:19:15.290Z,3.40
2023-03-15T06:20:15.286Z,3.36
2023-03-15T06:21:15.278Z,3.31
2023-03-15T06:22:15.288Z,3.29
2023-03-15T06:23:15.248Z,3.34
2023-03-15T06:24:15.260Z,3.37
2023-03-15T06:25:15.230Z,3.32
2023-03-15T06:26:15.228Z,3.31
2023-03-15T06:27:15.216Z,3.36
2023-03-15T06:28:15.304Z,3.42
2023-03-15T06:29:15.208Z,3.36
2023-03-15T06:30:17.041Z,3.40
2023-03-15T06:31:15.279Z,3.40
2023-03-15T06:32:15.170Z,3.45
2023-03-15T06:33:15.175Z,3.45
2023-03-15T06:34:15.158Z,3.42
2023-03-15T06:35:15.147Z,3.47
2023-03-15T06:36:15.137Z,3.47
2023-03-15T06:37:20.354Z,3.51
2023-03-15T06:38:15.128Z,3.59
2023-03-15T06:39:15.100Z,3.60
2023-03-15T06:40:15.097Z,3.68
2023-03-15T06:41:15.085Z,3.60
2023-03-15T06:42:15.077Z,3.63
2023-03-15T06:43:15.068Z,3.69
2023-03-15T06:44:15.065Z,3.68
2023-03-15T06:45:15.052Z,3.73
2023-03-15T06:46:15.100Z,3.76
2023-03-15T06:47:15.046Z,3.80
2023-03-15T06:48:15.044Z,3.77
2023-03-15T06:49:15.022Z,3.83
2023-03-15T06:50:15.012Z,3.86
2023-03-15T06:51:14.989Z,3.91
2023-03-15T06:52:14.998Z,4.05
2023-03-15T06:53:14.999Z,4.04
2023-03-15T06:54:14.976Z,4.10
2023-03-15T06:55:14.980Z,4.06
2023-03-15T06:56:14.974Z,4.13
2023-03-15T06:57:14.937Z,4.23
2023-03-15T06:58:14.945Z,4.22
2023-03-15T06:59:14.921Z,4.22
2023-03-15T07:00:14.916Z,4.23
2023-03-15T07:01:14.973Z,4.34
2023-03-15T07:02:14.944Z,4.40
2023-03-15T07:03:14.878Z,4.45
2023-03-15T07:04:14.890Z,4.40
2023-03-15T07:05:14.868Z,4.42
2023-03-15T07:06:14.870Z,4.40
2023-03-15T07:07:14.868Z,4.44
2023-03-15T07:08:14.875Z,4.37
2023-03-15T07:09:14.856Z,4.34
2023-03-15T07:10:14.823Z,4.37
2023-03-15T07:11:14.853Z,4.26
2023-03-15T07:12:14.825Z,4.38
2023-03-15T07:13:14.810Z,4.45
2023-03-15T07:14:14.815Z,4.49
2023-03-15T07:15:17.054Z,4.44
2023-03-15T07:16:14.852Z,4.45
2023-03-15T07:17:14.770Z,4.49
2023-03-15T07:18:14.797Z,4.50
2023-03-15T07:19:14.747Z,4.66
2023-03-15T07:20:14.760Z,4.68
2023-03-15T07:21:14.740Z,4.66
2023-03-15T07:22:14.739Z,4.66
2023-03-15T07:23:14.761Z,4.49
2023-03-15T07:24:14.705Z,4.56
2023-03-15T07:25:14.724Z,4.50
2023-03-15T07:26:14.711Z,4.52
2023-03-15T07:27:16.498Z,4.55
2023-03-15T07:28:14.680Z,4.53
2023-03-15T07:29:14.674Z,4.55
2023-03-15T07:30:14.684Z,4.60
2023-03-15T07:31:14.659Z,4.52
2023-03-15T07:32:14.655Z,4.50
2023-03-15T07:33:14.696Z,4.66
2023-03-15T07:34:14.633Z,4.59
2023-03-15T07:35:14.627Z,4.63
2023-03-15T07:36:14.634Z,4.63
2023-03-15T07:38:27.330Z,4.67
2023-03-15T07:39:27.273Z,4.67
2023-03-15T07:40:27.261Z,4.73
2023-03-15T07:41:27.296Z,4.73
2023-03-15T07:42:27.251Z,4.70
2023-03-15T07:43:27.236Z,4.70
2023-03-15T07:44:27.219Z,4.70
2023-03-15T07:45:27.225Z,4.71
2023-03-15T07:46:27.309Z,4.73
2023-03-15T07:47:27.198Z,4.74
2023-03-15T07:48:27.230Z,4.74
2023-03-15T07:49:27.244Z,4.74
2023-03-15T07:50:27.194Z,4.89
2023-03-15T07:51:27.169Z,4.94
2023-03-15T07:52:27.166Z,5.00
2023-03-15T07:53:27.178Z,5.00
2023-03-15T07:54:28.794Z,5.14
2023-03-15T07:55:27.192Z,5.17
2023-03-15T07:56:27.136Z,5.21
2023-03-15T07:57:28.942Z,5.23
2023-03-15T07:58:27.112Z,5.28
2023-03-15T07:59:27.108Z,5.30
2023-03-15T08:00:27.104Z,5.35
2023-03-15T08:01:27.095Z,5.38
2023-03-15T08:02:29.004Z,5.36
2023-03-15T08:03:27.258Z,5.43
2023-03-15T08:04:27.070Z,5.36
2023-03-15T08:05:29.000Z,5.38
2023-03-15T08:06:27.062Z,5.41
2023-03-15T08:07:27.052Z,5.44
2023-03-15T08:08:27.051Z,5.44
2023-03-15T08:09:27.025Z,5.41
2023-03-15T08:10:27.031Z,5.43
2023-03-15T08:11:27.022Z,5.41
2023-03-15T08:12:27.016Z,5.46
2023-03-15T08:13:27.025Z,5.41
2023-03-15T08:14:27.030Z,5.38
2023-03-15T08:15:27.007Z,5.44
2023-03-15T08:16:27.103Z,5.47
2023-03-15T08:17:26.966Z,5.53
2023-03-15T08:18:26.966Z,5.53
2023-03-15T08:19:26.958Z,5.62
2023-03-15T08:20:29.598Z,5.61
2023-03-15T08:21:26.945Z,5.64
2023-03-15T08:22:26.958Z,5.69
2023-03-15T08:23:26.953Z,5.71
2023-03-15T08:24:26.923Z,5.72
2023-03-15T08:25:26.917Z,5.72
2023-03-15T08:26:26.911Z,5.80
2023-03-15T08:27:26.936Z,5.75
2023-03-15T08:28:26.897Z,5.82
2023-03-15T08:29:26.900Z,5.80
2023-03-15T08:30:26.889Z,5.72
2023-03-15T08:31:26.922Z,5.65
2023-03-15T08:32:26.925Z,5.56
2023-03-15T08:33:26.860Z,5.59
2023-03-15T08:34:26.845Z,5.59
2023-03-15T08:35:26.945Z,5.62
2023-03-15T08:36:26.933Z,5.62
2023-03-15T08:37:26.829Z,5.61
2023-03-15T08:38:26.835Z,5.68
2023-03-15T08:39:26.824Z,5.59
2023-03-15T08:40:26.886Z,5.59
2023-03-15T08:41:26.806Z,5.65
2023-03-15T08:42:26.795Z,5.65
2023-03-15T08:43:26.795Z,5.66
2023-03-15T08:44:26.787Z,5.69
2023-03-15T08:45:26.772Z,5.71
2023-03-15T08:46:26.838Z,5.71
2023-03-15T08:47:26.770Z,5.82
2023-03-15T08:48:26.769Z,5.79
2023-03-15T08:49:26.737Z,5.80
2023-03-15T08:50:26.811Z,5.82
2023-03-15T08:51:26.721Z,5.87
2023-03-15T08:52:26.712Z,5.80
2023-03-15T08:53:26.699Z,5.90
2023-03-15T08:54:26.701Z,5.90
2023-03-15T08:55:26.684Z,5.91
2023-03-15T08:56:26.683Z,5.97
2023-03-15T08:57:26.677Z,5.94
2023-03-15T08:58:26.689Z,5.94
2023-03-15T08:59:31.879Z,5.94
2023-03-15T09:00:26.695Z,5.97
2023-03-15T09:01:26.643Z,5.97
2023-03-15T09:02:26.680Z,6.02
2023-03-15T09:03:26.637Z,5.94
2023-03-15T09:04:26.658Z,5.97
2023-03-15T09:05:26.641Z,5.86
2023-03-15T09:06:26.613Z,5.84
2023-03-15T09:07:26.596Z,5.82
2023-03-15T09:08:26.603Z,5.80
2023-03-15T09:09:26.601Z,5.86
2023-03-15T09:10:26.581Z,5.90
2023-03-15T09:11:26.577Z,5.93
2023-03-15T09:12:26.581Z,6.08
2023-03-15T09:13:26.560Z,6.14
2023-03-15T09:14:26.560Z,6.04
2023-03-15T09:15:26.540Z,6.12
2023-03-15T09:16:26.634Z,6.11
2023-03-15T09:17:26.545Z,6.09
2023-03-15T09:18:26.534Z,6.09
2023-03-15T09:19:26.515Z,6.26
2023-03-15T09:20:26.517Z,6.33
2023-03-15T09:21:26.503Z,6.62
2023-03-15T09:22:38.594Z,6.72
2023-03-15T09:23:26.507Z,6.59
2023-03-15T09:24:26.483Z,6.70
2023-03-15T09:25:26.475Z,6.69
2023-03-15T09:26:26.568Z,6.70
2023-03-15T09:27:26.466Z,6.70
2023-03-15T09:28:26.506Z,6.78
2023-03-15T09:29:26.452Z,6.78
2023-03-15T09:30:26.461Z,6.78
2023-03-15T09:31:26.548Z,6.70
2023-03-15T09:32:26.509Z,6.60
2023-03-15T09:33:26.428Z,6.57
2023-03-15T09:34:27.516Z,6.54
2023-03-15T09:35:26.519Z,6.49
2023-03-15T09:36:26.430Z,6.64
2023-03-15T09:37:26.415Z,6.62
2023-03-15T09:38:26.406Z,6.62
2023-03-15T09:39:26.587Z,6.74
2023-03-15T09:40:26.421Z,6.75
2023-03-15T09:41:26.384Z,6.79
2023-03-15T09:42:26.458Z,6.74
2023-03-15T09:43:26.379Z,6.74
2023-03-15T09:44:26.392Z,6.72
2023-03-15T09:45:26.361Z,6.64
2023-03-15T09:46:26.478Z,6.64
2023-03-15T09:47:26.349Z,6.45
2023-03-15T09:48:26.359Z,6.51
2023-03-15T09:49:26.345Z,6.51
2023-03-15T09:50:26.419Z,6.45
2023-03-15T09:51:26.323Z,6.44
2023-03-15T09:52:26.359Z,6.46
2023-03-15T09:53:26.309Z,6.38
2023-03-15T09:54:26.343Z,6.36
2023-03-15T09:55:26.298Z,6.36
2023-03-15T09:56:26.335Z,6.35
2023-03-15T09:57:26.286Z,6.45
2023-03-15T09:58:26.272Z,6.42
2023-03-15T09:59:26.273Z,6.46
2023-03-15T10:00:26.272Z,6.42
2023-03-15T10:01:26.290Z,6.35
2023-03-15T10:02:26.270Z,6.26
2023-03-15T10:03:26.297Z,6.20
2023-03-15T10:04:26.245Z,6.12
2023-03-15T10:05:26.238Z,6.11
2023-03-15T10:06:26.239Z,6.09
2023-03-15T10:07:26.227Z,6.09
2023-03-15T10:08:26.219Z,6.12
2023-03-15T10:09:26.240Z,6.24
2023-03-15T10:10:26.220Z,6.30
2023-03-15T10:11:26.195Z,6.36
2023-03-15T10:12:26.200Z,6.35
2023-03-15T10:13:26.216Z,6.44
2023-03-15T10:14:26.224Z,6.59
2023-03-15T10:15:26.162Z,6.75
2023-03-15T10:16:26.225Z,6.63
2023-03-15T10:17:26.154Z,6.84
2023-03-15T10:18:26.152Z,6.79
2023-03-15T10:19:26.145Z,6.79
2023-03-15T10:20:26.130Z,6.78
2023-03-15T10:21:26.134Z,6.74
2023-03-15T10:22:26.116Z,6.78
2023-03-15T10:23:26.140Z,6.74
2023-03-15T10:24:26.101Z,6.77
2023-03-15T10:25:26.125Z,6.85
2023-03-15T10:26:26.121Z,6.88
2023-03-15T10:27:26.097Z,6.95
2023-03-15T10:28:26.104Z,6.95
2023-03-15T10:29:26.073Z,6.92
2023-03-15T10:30:26.076Z,6.79
2023-03-15T10:31:36.825Z,6.85
2023-03-15T10:32:26.076Z,6.89
2023-03-15T10:33:26.042Z,6.81
2023-03-15T10:34:26.048Z,6.70
2023-03-15T10:35:26.049Z,6.75
2023-03-15T10:36:26.077Z,6.70
2023-03-15T10:37:26.021Z,6.70
2023-03-15T10:38:26.026Z,6.69
2023-03-15T10:39:26.001Z,6.75
2023-03-15T10:40:26.025Z,6.74
2023-03-15T10:41:29.094Z,6.69
2023-03-15T10:42:25.998Z,6.70
2023-03-15T10:43:25.979Z,6.74
2023-03-15T10:44:26.004Z,6.57
2023-03-15T10:45:25.985Z,6.59
2023-03-15T10:46:26.009Z,6.49
2023-03-15T10:47:26.036Z,6.45
2023-03-15T10:48:25.988Z,6.49
2023-03-15T10:49:25.941Z,6.39
2023-03-15T10:50:25.944Z,6.38
2023-03-15T10:51:25.947Z,6.38
2023-03-15T10:52:25.926Z,6.42
2023-03-15T10:53:25.937Z,6.51
2023-03-15T10:54:25.916Z,6.52
2023-03-15T10:55:25.909Z,6.46
2023-03-15T10:56:25.931Z,6.67
2023-03-15T10:57:25.910Z,6.63
2023-03-15T10:58:25.972Z,6.60
2023-03-15T10:59:25.920Z,6.56
2023-03-15T11:00:25.869Z,6.59
2023-03-15T11:01:25.956Z,6.60
2023-03-15T11:02:25.871Z,6.75
2023-03-15T11:03:25.861Z,6.75
2023-03-15T11:04:25.845Z,6.78
2023-03-15T11:05:25.839Z,6.82
2023-03-15T11:06:25.829Z,6.89
2023-03-15T11:07:25.823Z,6.95
2023-03-15T11:08:25.834Z,6.96
2023-03-15T11:09:25.841Z,7.06
2023-03-15T11:10:25.800Z,7.10
2023-03-15T11:11:25.789Z,7.10
2023-03-15T11:12:25.786Z,7.02
2023-03-15T11:13:25.787Z,7.10
2023-03-15T11:14:25.793Z,7.14
2023-03-15T11:15:25.774Z,7.13
2023-03-15T11:16:25.820Z,7.05
2023-03-15T11:17:25.753Z,7.07
2023-03-15T11:18:25.744Z,7.03
2023-03-15T11:19:25.805Z,7.10
2023-03-15T11:20:25.737Z,7.03
2023-03-15T11:21:25.736Z,7.13
2023-03-15T11:22:25.872Z,7.11
2023-03-15T11:23:25.737Z,7.18
2023-03-15T11:24:25.769Z,7.10
2023-03-15T11:25:25.712Z,7.18
2023-03-15T11:26:33.094Z,7.17
2023-03-15T11:27:25.698Z,7.24
2023-03-15T11:28:25.691Z,7.17
2023-03-15T11:29:25.682Z,7.23
2023-03-15T11:30:25.689Z,7.23
2023-03-15T11:31:25.700Z,7.07
2023-03-15T11:32:25.700Z,7.14
2023-03-15T11:33:25.668Z,7.14
2023-03-15T11:34:25.661Z,7.13
2023-03-15T11:35:25.689Z,7.21
2023-03-15T11:36:25.631Z,7.13
2023-03-15T11:37:25.632Z,7.17
2023-03-15T11:38:25.664Z,7.06
2023-03-15T11:39:25.639Z,7.14
2023-03-15T11:40:25.616Z,7.05
2023-03-15T11:41:25.606Z,7.10
2023-03-15T11:42:25.621Z,7.02
2023-03-15T11:43:25.605Z,6.97
2023-03-15T11:44:25.627Z,7.02
2023-03-15T11:45:25.612Z,7.03
2023-03-15T11:46:25.596Z,6.95
2023-03-15T11:47:25.574Z,7.03
2023-03-15T11:48:25.592Z,6.97
2023-03-15T11:49:25.553Z,7.05
2023-03-15T11:50:25.594Z,7.05
2023-03-15T11:51:25.538Z,6.96
2023-03-15T11:52:25.546Z,6.84
2023-03-15T11:53:25.528Z,6.87
2023-03-15T11:54:25.529Z,6.84
2023-03-15T11:55:25.524Z,6.82
2023-03-15T11:56:25.534Z,6.89
2023-03-15T11:57:25.504Z,6.77
2023-03-15T11:58:25.508Z,6.66
2023-03-15T11:59:25.506Z,6.72
2023-03-15T12:00:25.481Z,6.69
2023-03-15T12:01:25.479Z,6.70
2023-03-15T12:02:25.545Z,6.69
2023-03-15T12:03:25.516Z,6.72
2023-03-15T12:04:25.467Z,6.84
2023-03-15T12:05:25.444Z,6.78
2023-03-15T12:06:25.450Z,6.88
2023-03-15T12:07:25.442Z,6.87
2023-03-15T12:08:25.558Z,6.85
2023-03-15T12:09:25.452Z,6.84
2023-03-15T12:10:25.514Z,6.87
2023-03-15T12:11:25.413Z,6.84
2023-03-15T12:12:25.407Z,6.81
2023-03-15T12:13:25.420Z,6.81
2023-03-15T12:14:25.398Z,6.85
2023-03-15T12:15:25.467Z,6.95
2023-03-15T12:16:25.395Z,7.03
2023-03-15T12:17:25.389Z,7.02
2023-03-15T12:18:25.378Z,7.15
2023-03-15T12:19:25.367Z,7.17
2023-03-15T12:20:25.382Z,7.20
2023-03-15T12:21:25.367Z,7.32
2023-03-15T12:22:25.340Z,7.21
2023-03-15T12:23:25.344Z,7.33
2023-03-15T12:24:25.337Z,7.28
2023-03-15T12:25:25.330Z,7.29
2023-03-15T12:26:25.336Z,7.31
2023-03-15T12:27:25.314Z,7.39
2023-03-15T12:28:25.304Z,7.39
2023-03-15T12:29:25.319Z,7.33
2023-03-15T12:30:25.306Z,7.36
2023-03-15T12:31:25.318Z,7.38
2023-03-15T12:32:25.311Z,7.35
2023-03-15T12:33:25.301Z,7.42
2023-03-15T12:34:25.268Z,7.39
2023-03-15T12:35:25.272Z,7.33
2023-03-15T12:36:25.271Z,7.32
2023-03-15T12:37:25.247Z,7.32
2023-03-15T12:38:25.236Z,7.33
2023-03-15T12:39:25.234Z,7.32
2023-03-15T12:40:26.836Z,7.42
2023-03-15T12:41:25.215Z,7.50
2023-03-15T12:42:25.216Z,7.50
2023-03-15T12:43:25.206Z,7.48
2023-03-15T12:44:25.222Z,7.60
2023-03-15T12:45:25.194Z,7.58
2023-03-15T12:46:25.203Z,7.73
2023-03-15T12:47:25.179Z,7.75
2023-03-15T12:48:25.169Z,7.80
2023-03-15T12:49:25.211Z,7.85
2023-03-15T12:50:25.160Z,7.91
2023-03-15T12:51:25.154Z,7.91
2023-03-15T12:52:25.150Z,7.88
2023-03-15T12:53:25.149Z,7.91
2023-03-15T12:54:25.156Z,7.94
2023-03-15T12:55:25.136Z,7.91
2023-03-15T12:56:25.130Z,7.91
2023-03-15T12:57:25.126Z,7.98
2023-03-15T12:58:25.148Z,7.95
2023-03-15T12:59:25.106Z,8.00
2023-03-15T13:00:25.125Z,8.01
2023-03-15T13:01:25.123Z,7.93
2023-03-15T13:02:35.943Z,8.00
2023-03-15T13:03:25.095Z,8.01
2023-03-15T13:04:25.080Z,8.13
2023-03-15T13:05:25.082Z,8.13
2023-03-15T13:06:25.072Z,8.26
2023-03-15T13:07:25.076Z,8.26
2023-03-15T13:08:25.073Z,8.26
2023-03-15T13:09:25.097Z,8.23
2023-03-15T13:10:25.063Z,8.26
2023-03-15T13:11:25.050Z,8.18
2023-03-15T13:12:25.042Z,8.23
2023-03-15T13:13:25.038Z,8.30
2023-03-15T13:14:25.041Z,8.31
2023-03-15T13:15:25.024Z,8.31
2023-03-15T13:16:25.100Z,8.38
2023-03-15T13:17:25.012Z,8.31
2023-03-15T13:18:25.025Z,8.33
2023-03-15T13:19:25.028Z,8.33
2023-03-15T13:20:24.994Z,8.37
2023-03-15T13:21:25.002Z,8.38
2023-03-15T13:22:25.008Z,8.31
2023-03-15T13:23:26.216Z,8.33
2023-03-15T13:24:24.986Z,8.38
2023-03-15T13:25:24.962Z,8.38
2023-03-15T13:26:24.966Z,8.42
2023-03-15T13:27:24.963Z,8.42
2023-03-15T13:28:24.968Z,8.44
2023-03-15T13:29:24.969Z,8.41
2023-03-15T13:30:25.021Z,8.46
2023-03-15T13:31:25.015Z,8.48
2023-03-15T13:32:24.962Z,8.46
2023-03-15T13:33:24.935Z,8.37
2023-03-15T13:34:24.925Z,8.42
2023-03-15T13:35:24.975Z,8.38
2023-03-15T13:36:24.933Z,8.52
2023-03-15T13:37:24.909Z,8.46
2023-03-15T13:38:24.910Z,8.46
2023-03-15T13:39:24.913Z,8.38
2023-03-15T13:40:24.888Z,8.49
2023-03-15T13:41:24.905Z,8.36
2023-03-15T13:42:24.884Z,8.41
2023-03-15T13:43:24.889Z,8.36
2023-03-15T13:44:24.877Z,8.31
2023-03-15T13:45:24.873Z,8.31
2023-03-15T13:46:24.948Z,8.31
2023-03-15T13:47:24.867Z,8.37
2023-03-15T13:48:24.870Z,8.33
2023-03-15T13:49:24.875Z,8.20
2023-03-15T13:50:24.833Z,8.15
2023-03-15T13:51:24.836Z,8.12
2023-03-15T13:52:24.838Z,8.15
2023-03-15T13:53:35.613Z,8.08
2023-03-15T13:54:24.817Z,8.00
2023-03-15T13:55:24.828Z,7.90
2023-03-15T13:56:24.800Z,7.82
2023-03-15T13:57:24.809Z,7.73
2023-03-15T13:58:24.793Z,7.58
2023-03-15T13:59:24.799Z,7.61
2023-03-15T14:00:24.811Z,7.39
2023-03-15T14:01:24.811Z,7.33
2023-03-15T14:02:24.767Z,7.32
2023-03-15T14:03:24.767Z,7.31
2023-03-15T14:04:24.763Z,7.31
2023-03-15T14:05:24.761Z,7.17
2023-03-15T14:06:24.756Z,7.24
2023-03-15T14:07:24.769Z,7.17
2023-03-15T14:08:24.743Z,7.18
2023-03-15T14:09:24.744Z,7.25
2023-03-15T14:10:24.720Z,7.35
2023-03-15T14:11:24.733Z,7.36
2023-03-15T14:12:24.708Z,7.50
2023-03-15T14:13:24.725Z,7.54
2023-03-15T14:14:24.710Z,7.58
2023-03-15T14:15:24.707Z,7.60
2023-03-15T14:16:24.748Z,7.61
2023-03-15T14:17:24.689Z,7.70
2023-03-15T14:18:24.694Z,7.73
2023-03-15T14:19:24.680Z,7.72
2023-03-15T14:20:24.689Z,7.77
2023-03-15T14:21:24.660Z,7.73
2023-03-15T14:22:24.652Z,7.63
2023-03-15T14:23:24.649Z,7.58
2023-03-15T14:24:24.663Z,7.66
2023-03-15T14:25:24.653Z,7.60
2023-03-15T14:26:24.636Z,7.69
2023-03-15T14:27:24.640Z,7.63
2023-03-15T14:28:24.615Z,7.63
2023-03-15T14:29:24.613Z,7.63
2023-03-15T14:30:24.655Z,7.63
2023-03-15T14:31:24.697Z,7.58
2023-03-15T14:32:24.663Z,7.63